Terminal Aerodrome Forecast
Issued by NWS Brownsville, TX

Home | Current Version | Previous Version | Text Only | Print | Product List | Glossary On
Versions: 1 2 3 4 5 6 7 8 9 10 11 12 13 14 15 16 17 18 19
000
FTUS44 KBRO 302327
TAFHRL
TAF
KHRL 302327Z 3100/3124 08010KT P6SM SCT020 BKN060
     FM310400 13006KT 5SM BR BKN015
     FM310800 14004KT 3SM BR SCT010 BKN060
     FM311200 14006KT 2SM BR FEW006 SCT009
     FM311700 16021G27KT P6SM OVC050=

USA.gov is the U.S. government's official web portal to all federal, state and local government web resources and services.